Time;durP1;ratioP1;P1;durP2;ratioP2;P2;SDS_P1;SDS_P2;PMS_P1;PMS_P2;Temp;Humidity;BMP_temperature;BMP_pressure;BME280_temperature;BME280_humidity;BME280_pressure;Samples;Min_cycle;Max_cycle;Signal;HPM_P1;HPM_P2
2024/01/26 00:01:47;;;;;;;11.00;3.80;;;;;;;;;;4998939;28;20266;-69
2024/01/26 00:04:12;;;;;;;11.10;3.00;;;;;;;;;;4996585;28;20330;-68
2024/01/26 00:06:38;;;;;;;14.80;4.57;;;;;;;;;;5002248;28;20301;-68
2024/01/26 00:09:10;;;;;;;8.73;3.42;;;;;;;;;;5002460;28;20381;-68
2024/01/26 00:11:36;;;;;;;12.93;3.97;;;;;;;;;;4999792;28;20113;-68
2024/01/26 00:14:01;;;;;;;7.97;3.80;;;;;;;;;;5001891;28;20120;-69
2024/01/26 00:16:26;;;;;;;11.93;4.97;;;;;;;;;;4997969;28;20034;-68
2024/01/26 00:18:51;;;;;;;12.77;3.50;;;;;;;;;;5003091;28;20620;-68
2024/01/26 00:21:18;;;;;;;6.70;3.07;;;;;;;;;;5000510;28;20041;-68
2024/01/26 00:23:43;;;;;;;15.02;4.90;;;;;;;;;;5004473;28;20276;-68
2024/01/26 00:26:08;;;;;;;14.73;3.55;;;;;;;;;;5006144;28;20036;-68
2024/01/26 00:28:34;;;;;;;14.43;5.10;;;;;;;;;;5005944;28;20093;-68
2024/01/26 00:30:59;;;;;;;18.85;5.47;;;;;;;;;;5001375;28;20049;-68
2024/01/26 00:33:24;;;;;;;14.17;5.80;;;;;;;;;;4999247;28;20105;-68
2024/01/26 00:35:49;;;;;;;9.60;5.10;;;;;;;;;;4999402;28;20280;-68
2024/01/26 00:38:15;;;;;;;9.25;3.78;;;;;;;;;;4997367;28;20026;-68
2024/01/26 00:40:40;;;;;;;16.75;4.72;;;;;;;;;;5000581;28;20038;-68
2024/01/26 00:43:05;;;;;;;20.13;5.75;;;;;;;;;;5006659;28;20432;-68
2024/01/26 00:45:30;;;;;;;12.73;4.80;;;;;;;;;;5003262;28;20462;-68
2024/01/26 00:47:55;;;;;;;15.87;4.47;;;;;;;;;;4998642;28;20257;-68
2024/01/26 00:50:20;;;;;;;11.93;5.03;;;;;;;;;;4998618;28;20322;-68
2024/01/26 00:52:46;;;;;;;19.77;5.07;;;;;;;;;;4999697;28;20260;-68
2024/01/26 00:55:11;;;;;;;15.50;6.15;;;;;;;;;;4998926;28;20469;-68
2024/01/26 00:57:36;;;;;;;19.38;5.90;;;;;;;;;;5007519;28;20384;-68
2024/01/26 01:00:07;;;;;;;10.30;4.93;;;;;;;;;;4997761;28;20489;-69
2024/01/26 01:02:32;;;;;;;17.88;6.53;;;;;;;;;;4998663;28;20393;-69
2024/01/26 01:04:57;;;;;;;18.10;5.63;;;;;;;;;;4996066;28;20030;-69
2024/01/26 01:07:22;;;;;;;8.73;4.17;;;;;;;;;;4996978;28;20022;-69
2024/01/26 01:09:47;;;;;;;17.70;5.57;;;;;;;;;;4999467;28;20338;-69
2024/01/26 01:12:12;;;;;;;11.90;4.77;;;;;;;;;;5002093;28;20778;-69
2024/01/26 01:14:40;;;;;;;18.73;5.83;;;;;;;;;;5006503;28;20351;-69
2024/01/26 01:17:05;;;;;;;15.75;4.85;;;;;;;;;;5000890;28;20336;-69
2024/01/26 01:19:30;;;;;;;12.95;4.15;;;;;;;;;;5001098;28;20125;-69
2024/01/26 01:21:56;;;;;;;14.68;5.75;;;;;;;;;;5004762;28;20080;-69
2024/01/26 01:24:21;;;;;;;13.85;5.43;;;;;;;;;;5002505;28;20018;-69
2024/01/26 01:26:46;;;;;;;10.27;4.45;;;;;;;;;;5002812;28;20035;-69
2024/01/26 01:29:11;;;;;;;14.83;5.23;;;;;;;;;;5001804;28;20466;-69
2024/01/26 01:31:36;;;;;;;12.53;5.40;;;;;;;;;;5011585;28;20323;-69
2024/01/26 01:34:02;;;;;;;18.63;5.20;;;;;;;;;;5004229;28;20343;-69
2024/01/26 01:36:27;;;;;;;15.40;5.68;;;;;;;;;;5000068;28;20265;-69
2024/01/26 01:38:52;;;;;;;21.17;5.33;;;;;;;;;;5002534;28;20021;-69
2024/01/26 01:41:17;;;;;;;15.45;5.10;;;;;;;;;;5000638;28;20250;-69
2024/01/26 01:43:42;;;;;;;17.98;5.93;;;;;;;;;;5002587;28;20080;-69
2024/01/26 01:46:08;;;;;;;9.67;3.40;;;;;;;;;;5002323;28;20034;-69
2024/01/26 01:48:33;;;;;;;12.85;5.18;;;;;;;;;;5011467;28;20299;-69
2024/01/26 01:50:59;;;;;;;19.85;5.13;;;;;;;;;;5010085;28;20097;-69
2024/01/26 01:53:24;;;;;;;15.25;5.88;;;;;;;;;;5003768;28;20018;-69
2024/01/26 01:55:51;;;;;;;12.95;5.88;;;;;;;;;;5004372;28;20030;-69
2024/01/26 01:58:16;;;;;;;25.55;5.93;;;;;;;;;;5001573;28;20441;-69
2024/01/26 02:00:41;;;;;;;11.77;5.22;;;;;;;;;;5000393;28;20134;-69
2024/01/26 02:03:06;;;;;;;9.43;3.47;;;;;;;;;;5000953;28;20482;-69
2024/01/26 02:05:32;;;;;;;13.80;4.93;;;;;;;;;;5011540;28;20273;-69
2024/01/26 02:07:57;;;;;;;16.70;6.53;;;;;;;;;;5002359;28;20755;-69
2024/01/26 02:10:23;;;;;;;17.73;6.90;;;;;;;;;;5003853;28;20041;-69
2024/01/26 02:12:48;;;;;;;24.77;6.15;;;;;;;;;;5007175;28;20260;-69
2024/01/26 02:15:13;;;;;;;13.98;5.35;;;;;;;;;;5005582;28;20497;-69
2024/01/26 02:17:39;;;;;;;14.63;5.85;;;;;;;;;;5002832;28;20766;-69
2024/01/26 02:20:05;;;;;;;16.08;6.47;;;;;;;;;;5003999;28;20053;-69
2024/01/26 02:22:30;;;;;;;12.55;5.47;;;;;;;;;;5007025;28;20736;-69
2024/01/26 02:24:55;;;;;;;7.65;3.35;;;;;;;;;;5009895;28;20477;-69
2024/01/26 02:27:20;;;;;;;19.15;6.57;;;;;;;;;;5000134;28;20077;-69
2024/01/26 02:29:46;;;;;;;18.90;6.32;;;;;;;;;;4995288;28;20026;-69
2024/01/26 02:32:11;;;;;;;17.73;5.68;;;;;;;;;;5009597;28;20076;-69
2024/01/26 02:34:37;;;;;;;18.77;6.72;;;;;;;;;;5006935;28;20073;-69
2024/01/26 02:37:02;;;;;;;17.65;6.55;;;;;;;;;;5001933;28;20018;-69
2024/01/26 02:39:28;;;;;;;16.70;6.53;;;;;;;;;;4999188;28;20018;-69
2024/01/26 02:41:54;;;;;;;12.18;5.38;;;;;;;;;;5003533;28;20037;-69
2024/01/26 02:44:19;;;;;;;14.45;5.90;;;;;;;;;;5001618;28;20053;-69
2024/01/26 02:46:47;;;;;;;19.50;6.23;;;;;;;;;;5003568;28;20553;-69
2024/01/26 02:49:12;;;;;;;15.60;6.82;;;;;;;;;;5004700;28;20261;-69
2024/01/26 02:51:37;;;;;;;16.23;6.15;;;;;;;;;;5000213;28;20477;-69
2024/01/26 02:54:02;;;;;;;15.37;5.90;;;;;;;;;;5005832;28;20596;-69
2024/01/26 02:56:28;;;;;;;18.92;6.72;;;;;;;;;;5000241;28;20333;-69
2024/01/26 02:58:53;;;;;;;16.95;6.72;;;;;;;;;;5003385;28;20049;-69
2024/01/26 03:01:19;;;;;;;20.67;7.00;;;;;;;;;;5008102;28;20037;-69
2024/01/26 03:03:44;;;;;;;25.08;6.35;;;;;;;;;;5005291;28;20269;-69
2024/01/26 03:06:11;;;;;;;20.83;7.27;;;;;;;;;;5005728;28;20034;-69
2024/01/26 03:08:37;;;;;;;13.05;5.97;;;;;;;;;;5003180;28;20618;-69
2024/01/26 03:11:03;;;;;;;17.85;6.55;;;;;;;;;;5002162;28;20026;-69
2024/01/26 03:13:28;;;;;;;15.23;6.55;;;;;;;;;;4998787;28;20044;-69
2024/01/26 03:15:53;;;;;;;14.33;5.70;;;;;;;;;;5003836;28;20022;-69
2024/01/26 03:18:18;;;;;;;18.33;7.55;;;;;;;;;;5007217;28;20275;-69
2024/01/26 03:20:44;;;;;;;15.27;6.20;;;;;;;;;;5008145;28;20021;-69
2024/01/26 03:23:09;;;;;;;19.40;6.03;;;;;;;;;;5006045;28;20026;-69
2024/01/26 03:25:34;;;;;;;15.82;6.20;;;;;;;;;;5003366;28;20560;-69
2024/01/26 03:27:59;;;;;;;13.17;5.70;;;;;;;;;;5002245;28;20030;-69
2024/01/26 03:30:24;;;;;;;17.73;6.13;;;;;;;;;;4998029;28;20284;-69
2024/01/26 03:32:50;;;;;;;13.57;6.55;;;;;;;;;;5006758;28;20417;-69
2024/01/26 03:35:15;;;;;;;17.13;6.93;;;;;;;;;;5004127;28;20025;-69
2024/01/26 03:37:40;;;;;;;19.30;6.83;;;;;;;;;;4999785;28;20269;-69
2024/01/26 03:40:05;;;;;;;16.50;6.15;;;;;;;;;;4997105;28;20285;-69
2024/01/26 03:42:31;;;;;;;21.42;7.28;;;;;;;;;;5001926;28;20483;-69
2024/01/26 03:44:56;;;;;;;14.27;6.53;;;;;;;;;;5001951;28;20083;-69
2024/01/26 03:47:21;;;;;;;13.93;7.00;;;;;;;;;;5004196;28;20033;-69
2024/01/26 03:49:46;;;;;;;9.37;4.77;;;;;;;;;;5009597;28;20264;-69
2024/01/26 03:52:12;;;;;;;3.70;2.20;;;;;;;;;;5007205;28;20767;-69
2024/01/26 03:54:37;;;;;;;15.82;5.47;;;;;;;;;;4999569;28;20026;-69
2024/01/26 03:57:02;;;;;;;13.77;4.93;;;;;;;;;;5001677;28;20030;-69
2024/01/26 03:59:28;;;;;;;14.48;5.70;;;;;;;;;;5000975;28;20022;-69
2024/01/26 04:01:53;;;;;;;13.63;6.00;;;;;;;;;;5004399;28;20018;-69
2024/01/26 04:04:19;;;;;;;12.87;3.80;;;;;;;;;;5000722;28;20018;-69
2024/01/26 04:06:44;;;;;;;8.70;3.75;;;;;;;;;;5009102;28;20275;-69
2024/01/26 04:09:10;;;;;;;8.80;4.27;;;;;;;;;;5000531;28;20022;-69
2024/01/26 04:11:35;;;;;;;7.82;4.70;;;;;;;;;;5001956;28;20265;-69
2024/01/26 04:14:00;;;;;;;4.87;2.23;;;;;;;;;;5003554;28;20117;-69
2024/01/26 04:16:26;;;;;;;9.52;3.60;;;;;;;;;;4998577;28;20935;-69
2024/01/26 04:18:51;;;;;;;17.93;6.33;;;;;;;;;;5003808;28;20034;-69
2024/01/26 04:21:16;;;;;;;10.37;5.40;;;;;;;;;;5002133;28;20269;-69
2024/01/26 04:23:41;;;;;;;6.90;3.30;;;;;;;;;;5008790;28;20319;-69
2024/01/26 04:26:06;;;;;;;14.52;4.22;;;;;;;;;;5001377;28;20253;-69
2024/01/26 04:28:32;;;;;;;5.82;2.58;;;;;;;;;;4997065;28;20046;-69
2024/01/26 04:30:57;;;;;;;9.25;4.60;;;;;;;;;;5004427;28;20096;-69
2024/01/26 04:33:22;;;;;;;16.63;4.70;;;;;;;;;;5003833;28;20085;-69
2024/01/26 04:35:47;;;;;;;14.00;5.25;;;;;;;;;;5001667;28;20437;-69
2024/01/26 04:38:13;;;;;;;11.70;4.77;;;;;;;;;;5003876;28;20032;-69
2024/01/26 04:40:38;;;;;;;9.70;4.97;;;;;;;;;;5009062;28;20323;-69
2024/01/26 04:43:05;;;;;;;7.82;3.17;;;;;;;;;;5003331;28;20030;-68
2024/01/26 04:45:30;;;;;;;12.25;5.43;;;;;;;;;;5000896;28;20033;-69
2024/01/26 04:47:55;;;;;;;3.47;1.80;;;;;;;;;;4997789;28;20042;-69
2024/01/26 04:50:20;;;;;;;9.17;4.37;;;;;;;;;;5000206;28;20348;-69
2024/01/26 04:52:45;;;;;;;12.70;4.53;;;;;;;;;;5006395;28;20266;-69
2024/01/26 04:55:11;;;;;;;9.85;5.00;;;;;;;;;;5007029;28;20292;-69
2024/01/26 04:57:36;;;;;;;7.60;3.08;;;;;;;;;;5010154;28;20018;-69
2024/01/26 05:00:01;;;;;;;8.88;4.30;;;;;;;;;;5005268;28;20021;-69
2024/01/26 05:02:27;;;;;;;10.90;5.20;;;;;;;;;;5006126;28;20077;-69
2024/01/26 05:04:52;;;;;;;10.73;3.40;;;;;;;;;;5009195;28;20033;-69
2024/01/26 05:07:17;;;;;;;10.75;4.47;;;;;;;;;;5003629;28;20026;-69
2024/01/26 05:09:42;;;;;;;10.20;5.17;;;;;;;;;;5003266;28;20030;-69
2024/01/26 05:12:08;;;;;;;13.73;4.13;;;;;;;;;;5008551;28;20269;-69
2024/01/26 05:14:34;;;;;;;9.60;5.05;;;;;;;;;;5003678;28;20789;-69
2024/01/26 05:16:59;;;;;;;6.50;3.60;;;;;;;;;;5008336;28;20477;-69
2024/01/26 05:19:25;;;;;;;11.73;4.37;;;;;;;;;;5001440;28;20035;-69
2024/01/26 05:21:50;;;;;;;9.23;3.33;;;;;;;;;;5006995;28;20253;-69
2024/01/26 05:24:15;;;;;;;4.35;2.33;;;;;;;;;;5002887;28;20798;-69
2024/01/26 05:26:40;;;;;;;7.87;3.47;;;;;;;;;;5006016;28;20088;-69
2024/01/26 05:29:08;;;;;;;6.20;1.90;;;;;;;;;;5003193;28;20273;-69
2024/01/26 05:31:34;;;;;;;4.93;2.88;;;;;;;;;;5007334;28;20261;-69
2024/01/26 05:33:59;;;;;;;1.08;0.80;;;;;;;;;;5002034;28;20029;-69
2024/01/26 05:36:24;;;;;;;10.85;3.78;;;;;;;;;;5002297;28;20582;-69
2024/01/26 05:38:49;;;;;;;13.95;3.50;;;;;;;;;;5004222;28;20019;-69
2024/01/26 05:41:15;;;;;;;6.63;3.67;;;;;;;;;;5002985;28;20018;-69
2024/01/26 05:43:40;;;;;;;2.13;1.52;;;;;;;;;;5006223;28;20034;-69
2024/01/26 05:46:05;;;;;;;7.17;2.47;;;;;;;;;;5004125;28;20037;-69
2024/01/26 05:48:30;;;;;;;6.60;2.53;;;;;;;;;;5004974;28;20269;-68
2024/01/26 05:50:56;;;;;;;6.85;3.42;;;;;;;;;;5007177;28;20014;-69
2024/01/26 05:53:21;;;;;;;8.40;2.28;;;;;;;;;;5005631;28;20041;-69
2024/01/26 05:55:46;;;;;;;3.57;1.70;;;;;;;;;;5009558;28;20106;-69
2024/01/26 05:58:12;;;;;;;4.20;1.87;;;;;;;;;;5005044;28;20261;-69
2024/01/26 06:00:37;;;;;;;2.35;1.30;;;;;;;;;;5004251;28;20250;-69
2024/01/26 06:03:02;;;;;;;6.13;2.20;;;;;;;;;;5008026;28;20101;-69
2024/01/26 06:05:27;;;;;;;3.33;1.58;;;;;;;;;;5006413;28;20272;-69
2024/01/26 06:07:52;;;;;;;2.72;1.20;;;;;;;;;;5005449;28;20481;-69
2024/01/26 06:10:18;;;;;;;4.03;1.15;;;;;;;;;;5001538;28;20017;-69
2024/01/26 06:12:44;;;;;;;4.53;2.20;;;;;;;;;;5005854;28;20022;-69
2024/01/26 06:15:09;;;;;;;3.13;1.60;;;;;;;;;;5021191;28;20293;-69
2024/01/26 06:17:35;;;;;;;0.80;0.52;;;;;;;;;;5008194;28;20113;-69
2024/01/26 06:20:03;;;;;;;2.17;1.25;;;;;;;;;;5006472;28;20402;-69
2024/01/26 06:22:28;;;;;;;4.78;1.10;;;;;;;;;;5006995;28;20075;-69
2024/01/26 06:24:53;;;;;;;1.53;0.90;;;;;;;;;;5004433;28;20026;-69
2024/01/26 06:27:19;;;;;;;3.53;1.65;;;;;;;;;;5016360;28;20276;-69
2024/01/26 06:29:46;;;;;;;5.23;1.60;;;;;;;;;;5004934;28;20026;-69
2024/01/26 06:32:11;;;;;;;5.20;2.20;;;;;;;;;;5001282;28;20265;-69
2024/01/26 06:34:39;;;;;;;3.42;1.30;;;;;;;;;;5000153;28;20088;-69
2024/01/26 06:37:05;;;;;;;1.88;1.08;;;;;;;;;;5004369;28;20025;-69
2024/01/26 06:39:32;;;;;;;2.23;1.10;;;;;;;;;;5005405;28;20026;-68
2024/01/26 06:41:57;;;;;;;5.53;0.98;;;;;;;;;;4997961;28;20245;-69
2024/01/26 06:44:22;;;;;;;4.67;0.87;;;;;;;;;;5001941;28;20040;-69
2024/01/26 06:46:47;;;;;;;2.23;1.27;;;;;;;;;;5002317;28;20261;-69
2024/01/26 06:49:12;;;;;;;3.33;1.63;;;;;;;;;;5003854;28;20304;-69
2024/01/26 06:51:38;;;;;;;1.17;0.98;;;;;;;;;;4998313;28;20373;-69
2024/01/26 06:54:03;;;;;;;2.33;0.73;;;;;;;;;;5004521;28;20033;-69
2024/01/26 06:56:28;;;;;;;1.70;1.03;;;;;;;;;;5005020;28;20041;-68
2024/01/26 06:58:53;;;;;;;1.58;0.77;;;;;;;;;;5001817;28;20289;-68
2024/01/26 07:01:18;;;;;;;1.50;0.70;;;;;;;;;;5002342;28;20032;-69
2024/01/26 07:03:44;;;;;;;4.27;1.33;;;;;;;;;;5002151;28;20296;-68
2024/01/26 07:06:09;;;;;;;2.80;1.00;;;;;;;;;;5003186;28;21111;-68
2024/01/26 07:08:35;;;;;;;1.50;0.60;;;;;;;;;;5000670;28;20061;-69
2024/01/26 07:11:01;;;;;;;1.90;1.00;;;;;;;;;;5004304;28;20037;-68
2024/01/26 07:13:26;;;;;;;1.23;0.70;;;;;;;;;;5006280;28;20026;-69
2024/01/26 07:15:51;;;;;;;0.70;0.60;;;;;;;;;;5007724;28;20148;-69
2024/01/26 07:18:16;;;;;;;0.60;0.57;;;;;;;;;;5004611;28;20327;-68
2024/01/26 07:20:42;;;;;;;0.50;0.38;;;;;;;;;;5000176;28;20752;-68
2024/01/26 07:23:07;;;;;;;1.80;0.70;;;;;;;;;;5005880;28;20026;-68
2024/01/26 07:25:32;;;;;;;1.07;0.83;;;;;;;;;;5007610;28;20529;-68
2024/01/26 07:27:57;;;;;;;1.08;0.80;;;;;;;;;;5008781;28;20259;-68
2024/01/26 07:30:22;;;;;;;1.17;0.83;;;;;;;;;;5004008;28;20038;-68
2024/01/26 07:32:48;;;;;;;1.98;0.90;;;;;;;;;;5002291;28;20640;-68
2024/01/26 07:35:13;;;;;;;0.37;0.33;;;;;;;;;;5003468;28;20033;-68
2024/01/26 07:37:39;;;;;;;0.98;0.77;;;;;;;;;;5001295;28;20268;-68
2024/01/26 07:40:05;;;;;;;0.63;0.60;;;;;;;;;;5003799;28;20022;-68
2024/01/26 07:42:30;;;;;;;4.45;0.95;;;;;;;;;;5007526;28;20016;-68
2024/01/26 07:44:56;;;;;;;2.35;1.52;;;;;;;;;;5005569;28;20089;-68
2024/01/26 07:47:22;;;;;;;3.37;0.87;;;;;;;;;;5008584;28;20465;-68
2024/01/26 07:49:48;;;;;;;3.03;1.35;;;;;;;;;;5009402;28;20277;-68
2024/01/26 07:52:13;;;;;;;4.90;1.25;;;;;;;;;;5006075;28;20014;-68
2024/01/26 07:54:38;;;;;;;2.95;1.40;;;;;;;;;;5008943;28;20436;-68
2024/01/26 07:57:04;;;;;;;8.32;1.33;;;;;;;;;;5001387;28;20026;-68
2024/01/26 07:59:29;;;;;;;5.43;1.73;;;;;;;;;;5001949;28;20461;-68
2024/01/26 08:01:54;;;;;;;6.10;1.85;;;;;;;;;;5004863;28;20014;-68
2024/01/26 08:04:19;;;;;;;6.63;1.48;;;;;;;;;;5006204;28;20032;-68
2024/01/26 08:06:44;;;;;;;4.35;1.33;;;;;;;;;;5004182;28;20065;-68
2024/01/26 08:09:10;;;;;;;1.90;1.63;;;;;;;;;;5003336;28;20120;-68
2024/01/26 08:11:36;;;;;;;3.00;1.65;;;;;;;;;;5001922;28;20129;-68
2024/01/26 08:14:02;;;;;;;3.03;1.97;;;;;;;;;;5004526;28;20113;-68
2024/01/26 08:16:27;;;;;;;3.25;1.70;;;;;;;;;;5005512;28;20344;-68
2024/01/26 08:18:53;;;;;;;9.57;2.17;;;;;;;;;;5003101;28;20018;-68
2024/01/26 08:21:18;;;;;;;1.73;0.82;;;;;;;;;;5002115;28;20366;-68
2024/01/26 08:23:44;;;;;;;4.88;2.30;;;;;;;;;;5005781;28;20021;-68
2024/01/26 08:26:10;;;;;;;4.90;2.08;;;;;;;;;;5004228;28;20010;-68
2024/01/26 08:28:35;;;;;;;1.95;0.90;;;;;;;;;;5004616;28;20049;-68
2024/01/26 08:31:00;;;;;;;6.72;2.80;;;;;;;;;;5002588;28;20058;-68
2024/01/26 08:33:25;;;;;;;6.55;2.95;;;;;;;;;;5011394;28;20469;-68
2024/01/26 08:35:50;;;;;;;3.07;2.07;;;;;;;;;;5006836;28;20540;-68
2024/01/26 08:38:16;;;;;;;2.17;1.50;;;;;;;;;;5007791;28;20299;-68
2024/01/26 08:40:41;;;;;;;7.45;2.42;;;;;;;;;;5008340;28;20134;-68
2024/01/26 08:43:06;;;;;;;6.83;3.37;;;;;;;;;;5008837;28;20024;-68
2024/01/26 08:45:32;;;;;;;11.77;3.90;;;;;;;;;;5008278;28;20675;-68
2024/01/26 08:47:57;;;;;;;8.93;2.93;;;;;;;;;;5009644;28;20385;-68
2024/01/26 08:50:22;;;;;;;4.90;2.20;;;;;;;;;;5009453;28;20292;-68
2024/01/26 08:52:47;;;;;;;8.40;1.90;;;;;;;;;;5008814;28;20280;-68
2024/01/26 08:55:13;;;;;;;4.57;2.40;;;;;;;;;;5006839;28;20850;-68
2024/01/26 08:57:38;;;;;;;6.60;2.03;;;;;;;;;;5005811;28;20022;-68
2024/01/26 09:00:08;;;;;;;10.77;3.47;;;;;;;;;;5007117;28;20022;-68
2024/01/26 09:02:33;;;;;;;3.45;1.70;;;;;;;;;;5009328;28;20026;-68
2024/01/26 09:04:59;;;;;;;5.47;2.23;;;;;;;;;;5012292;28;20034;-68
2024/01/26 09:07:24;;;;;;;4.57;1.60;;;;;;;;;;5009703;28;20376;-68
2024/01/26 09:09:49;;;;;;;11.45;3.22;;;;;;;;;;5005695;28;20480;-68
2024/01/26 09:12:15;;;;;;;8.73;2.77;;;;;;;;;;5007193;28;20038;-69
2024/01/26 09:14:40;;;;;;;12.00;3.17;;;;;;;;;;5006924;28;20289;-69
2024/01/26 09:17:07;;;;;;;5.87;3.43;;;;;;;;;;5006926;28;20739;-69
2024/01/26 09:19:32;;;;;;;10.70;2.95;;;;;;;;;;5004105;28;20312;-69
2024/01/26 09:21:57;;;;;;;2.93;1.27;;;;;;;;;;5008077;28;20021;-69
2024/01/26 09:24:22;;;;;;;5.83;2.43;;;;;;;;;;5007964;28;21948;-69
2024/01/26 09:26:49;;;;;;;4.30;1.57;;;;;;;;;;5009407;28;20292;-69
2024/01/26 09:29:14;;;;;;;5.93;2.17;;;;;;;;;;5008169;28;20256;-69
2024/01/26 09:31:40;;;;;;;9.67;2.43;;;;;;;;;;5006656;28;20032;-69
2024/01/26 09:34:06;;;;;;;3.90;1.80;;;;;;;;;;5008298;28;20320;-69
2024/01/26 09:36:31;;;;;;;5.47;1.98;;;;;;;;;;5008180;28;20109;-69
2024/01/26 09:38:57;;;;;;;4.65;1.98;;;;;;;;;;5008812;28;20114;-69
2024/01/26 09:41:22;;;;;;;4.88;1.88;;;;;;;;;;5010189;28;20101;-68
2024/01/26 09:43:47;;;;;;;4.10;1.77;;;;;;;;;;5010850;28;20396;-68
2024/01/26 09:46:14;;;;;;;3.47;1.73;;;;;;;;;;5007915;28;20412;-68
2024/01/26 09:48:40;;;;;;;3.05;1.65;;;;;;;;;;5007697;28;20022;-68
2024/01/26 09:51:05;;;;;;;3.53;1.48;;;;;;;;;;5010881;28;20105;-68
2024/01/26 09:53:33;;;;;;;4.70;1.35;;;;;;;;;;5008820;28;20104;-69
2024/01/26 09:55:59;;;;;;;4.53;1.65;;;;;;;;;;5011794;28;20076;-69
2024/01/26 09:58:24;;;;;;;4.43;2.17;;;;;;;;;;5007220;28;20014;-69
2024/01/26 10:00:50;;;;;;;4.10;0.80;;;;;;;;;;5011037;28;20500;-69
2024/01/26 10:03:15;;;;;;;5.40;1.13;;;;;;;;;;5007194;28;20022;-69
2024/01/26 10:05:41;;;;;;;0.77;0.47;;;;;;;;;;5007736;28;20038;-69
2024/01/26 10:08:09;;;;;;;2.65;0.88;;;;;;;;;;5008099;28;20074;-68
2024/01/26 10:10:35;;;;;;;1.85;1.33;;;;;;;;;;5005272;28;20432;-68
2024/01/26 10:13:00;;;;;;;1.95;1.13;;;;;;;;;;5008129;28;20033;-68
2024/01/26 10:15:25;;;;;;;44.25;1.38;;;;;;;;;;5005603;28;20025;-68
2024/01/26 10:17:54;;;;;;;2.58;1.25;;;;;;;;;;5005899;28;20541;-68
2024/01/26 10:20:20;;;;;;;4.88;1.73;;;;;;;;;;5004642;28;20022;-68
2024/01/26 10:22:46;;;;;;;1.48;0.85;;;;;;;;;;5005615;28;20507;-68
2024/01/26 10:25:11;;;;;;;2.78;1.20;;;;;;;;;;5007450;28;20069;-68
2024/01/26 10:27:37;;;;;;;4.72;1.17;;;;;;;;;;5006134;28;20048;-68
2024/01/26 10:30:03;;;;;;;3.00;1.25;;;;;;;;;;5008748;28;20041;-68
2024/01/26 10:32:29;;;;;;;4.32;1.10;;;;;;;;;;5006509;28;20030;-68
2024/01/26 10:34:58;;;;;;;5.38;1.17;;;;;;;;;;5006536;28;20098;-68
2024/01/26 10:37:25;;;;;;;6.07;1.23;;;;;;;;;;5005006;28;20021;-68
2024/01/26 10:39:51;;;;;;;3.38;1.65;;;;;;;;;;5005928;28;20112;-68
2024/01/26 10:42:17;;;;;;;4.78;1.50;;;;;;;;;;5005589;28;20458;-68
2024/01/26 10:44:44;;;;;;;3.80;1.52;;;;;;;;;;5004450;28;20026;-68
2024/01/26 10:47:10;;;;;;;2.90;1.17;;;;;;;;;;5009447;28;20025;-68
2024/01/26 10:49:36;;;;;;;1.60;1.30;;;;;;;;;;5007032;28;20057;-68
2024/01/26 10:52:02;;;;;;;8.25;1.63;;;;;;;;;;5005501;28;20637;-68
2024/01/26 10:54:28;;;;;;;1.55;1.20;;;;;;;;;;5003396;28;20064;-68
2024/01/26 10:56:54;;;;;;;2.92;1.38;;;;;;;;;;5004641;28;20045;-68
2024/01/26 10:59:20;;;;;;;3.50;2.08;;;;;;;;;;5007567;28;20045;-68
2024/01/26 11:01:46;;;;;;;3.50;2.55;;;;;;;;;;5004910;28;20508;-68
2024/01/26 11:04:11;;;;;;;7.70;3.35;;;;;;;;;;5007165;28;20029;-68
2024/01/26 11:06:37;;;;;;;8.75;3.53;;;;;;;;;;5005619;28;20113;-68
2024/01/26 11:09:07;;;;;;;9.38;5.22;;;;;;;;;;5008674;28;20384;-68
2024/01/26 11:11:35;;;;;;;10.75;5.93;;;;;;;;;;5003030;28;20112;-68
2024/01/26 11:14:01;;;;;;;7.38;3.33;;;;;;;;;;5005721;28;20034;-68
2024/01/26 11:16:33;;;;;;;3.60;1.80;;;;;;;;;;5005109;28;20026;-68
2024/01/26 11:18:59;;;;;;;5.10;1.85;;;;;;;;;;4999929;28;20022;-68
2024/01/26 11:21:24;;;;;;;5.25;1.90;;;;;;;;;;5003969;28;20028;-68
2024/01/26 11:23:49;;;;;;;3.77;1.90;;;;;;;;;;5005594;28;20038;-68
2024/01/26 11:26:15;;;;;;;3.17;1.00;;;;;;;;;;5004962;28;20280;-68
2024/01/26 11:28:41;;;;;;;3.85;1.42;;;;;;;;;;5005971;28;20467;-68
2024/01/26 11:31:07;;;;;;;2.65;1.20;;;;;;;;;;5007050;28;20017;-68
2024/01/26 11:33:37;;;;;;;3.35;1.20;;;;;;;;;;5008283;28;20385;-68
2024/01/26 11:36:03;;;;;;;;;;;;;;;;;;5003704;28;20036;-68
2024/01/26 11:38:29;;;;;;;4.93;0.80;;;;;;;;;;5006079;28;19906;-68
2024/01/26 11:40:55;;;;;;;5.43;1.13;;;;;;;;;;5006341;28;20040;-68
2024/01/26 11:43:23;;;;;;;5.55;1.33;;;;;;;;;;5003721;28;20075;-68
2024/01/26 11:45:49;;;;;;;4.97;0.60;;;;;;;;;;5006776;28;20048;-68
2024/01/26 11:48:14;;;;;;;5.00;0.98;;;;;;;;;;5008364;28;20026;-68
2024/01/26 11:50:40;;;;;;;6.32;1.20;;;;;;;;;;4998973;28;20508;-68
2024/01/26 11:53:06;;;;;;;7.30;1.08;;;;;;;;;;5000930;28;20489;-68
2024/01/26 11:55:31;;;;;;;9.75;1.20;;;;;;;;;;4996824;28;20030;-68
2024/01/26 11:57:56;;;;;;;8.23;1.05;;;;;;;;;;5000766;28;20502;-69
2024/01/26 12:00:22;;;;;;;6.97;1.02;;;;;;;;;;4995925;28;20113;-68
2024/01/26 12:02:47;;;;;;;17.17;3.08;;;;;;;;;;5004353;28;20022;-68
2024/01/26 12:05:13;;;;;;;4.72;1.00;;;;;;;;;;4997969;28;20105;-69
2024/01/26 12:07:38;;;;;;;14.27;1.73;;;;;;;;;;4990814;28;20077;-69
2024/01/26 12:10:03;;;;;;;10.23;1.50;;;;;;;;;;4994754;28;20501;-69
2024/01/26 12:12:30;;;;;;;9.75;1.23;;;;;;;;;;5000320;28;20572;-69
2024/01/26 12:14:55;;;;;;;9.30;1.55;;;;;;;;;;4994796;28;20023;-69
2024/01/26 12:17:20;;;;;;;12.93;1.90;;;;;;;;;;4998187;28;20020;-69
2024/01/26 12:19:47;;;;;;;8.30;1.25;;;;;;;;;;5003956;28;20501;-69
2024/01/26 12:22:12;;;;;;;8.43;1.40;;;;;;;;;;5008069;28;20062;-69
2024/01/26 12:24:39;;;;;;;17.73;2.55;;;;;;;;;;5004612;28;20053;-69
2024/01/26 12:27:04;;;;;;;5.68;1.23;;;;;;;;;;4994951;28;20052;-69
2024/01/26 12:29:29;;;;;;;15.50;1.65;;;;;;;;;;4997986;28;20017;-69
2024/01/26 12:32:12;;;;;;;6.40;1.52;;;;;;;;;;4998019;28;20097;-69
2024/01/26 12:34:38;;;;;;;8.35;1.27;;;;;;;;;;5001390;28;20027;-69
2024/01/26 12:37:09;;;;;;;16.47;1.50;;;;;;;;;;5007242;28;20029;-69
2024/01/26 12:39:35;;;;;;;15.05;2.83;;;;;;;;;;5007717;28;20265;-69
2024/01/26 12:42:00;;;;;;;8.50;1.10;;;;;;;;;;5003536;28;20065;-69
2024/01/26 12:44:27;;;;;;;8.80;1.75;;;;;;;;;;4999803;28;20030;-69
2024/01/26 12:46:52;;;;;;;9.98;2.42;;;;;;;;;;4999689;28;20121;-69
2024/01/26 12:49:17;;;;;;;15.70;2.83;;;;;;;;;;5003450;28;20108;-69
2024/01/26 12:51:43;;;;;;;5.53;1.70;;;;;;;;;;5005887;28;20265;-69
2024/01/26 12:54:10;;;;;;;15.38;2.55;;;;;;;;;;5006578;28;20288;-69
2024/01/26 12:56:36;;;;;;;6.75;1.67;;;;;;;;;;4999186;28;20022;-69
2024/01/26 12:59:01;;;;;;;18.42;2.92;;;;;;;;;;5001635;28;20076;-68
2024/01/26 13:01:27;;;;;;;7.53;1.13;;;;;;;;;;5007468;28;20423;-69
2024/01/26 13:03:52;;;;;;;10.27;1.45;;;;;;;;;;5004139;28;20311;-68
2024/01/26 13:06:17;;;;;;;4.63;1.00;;;;;;;;;;5007318;28;20026;-68
2024/01/26 13:08:42;;;;;;;8.10;1.10;;;;;;;;;;4999793;28;20472;-69
2024/01/26 13:11:09;;;;;;;7.75;1.42;;;;;;;;;;5000458;28;20282;-69
2024/01/26 13:13:35;;;;;;;11.57;1.50;;;;;;;;;;5004630;28;20013;-69
2024/01/26 13:16:00;;;;;;;9.52;2.38;;;;;;;;;;5002067;28;20429;-69
2024/01/26 13:18:27;;;;;;;16.97;1.83;;;;;;;;;;5006505;28;20038;-69
2024/01/26 13:20:52;;;;;;;8.40;1.10;;;;;;;;;;5011281;28;20261;-69
2024/01/26 13:23:18;;;;;;;8.73;1.23;;;;;;;;;;5003549;28;20033;-69
2024/01/26 13:25:43;;;;;;;4.07;1.23;;;;;;;;;;5004803;28;20261;-69
2024/01/26 13:28:08;;;;;;;4.80;0.98;;;;;;;;;;4995568;28;20017;-68
2024/01/26 13:30:34;;;;;;;6.90;1.40;;;;;;;;;;5005588;28;20026;-68
2024/01/26 13:32:59;;;;;;;4.45;2.08;;;;;;;;;;5000929;28;20261;-68
2024/01/26 13:35:25;;;;;;;7.97;1.83;;;;;;;;;;5003988;28;20026;-69
2024/01/26 13:37:51;;;;;;;10.18;1.33;;;;;;;;;;5011171;28;20026;-69
2024/01/26 13:40:16;;;;;;;6.90;1.10;;;;;;;;;;5004971;28;20019;-69
2024/01/26 13:42:41;;;;;;;5.60;1.00;;;;;;;;;;4998945;28;20023;-69
2024/01/26 13:45:11;;;;;;;7.93;1.00;;;;;;;;;;5001135;28;20022;-69
2024/01/26 13:47:36;;;;;;;16.35;1.48;;;;;;;;;;4997071;28;20037;-69
2024/01/26 13:50:03;;;;;;;9.65;2.40;;;;;;;;;;5004284;28;20026;-69
2024/01/26 13:52:28;;;;;;;11.52;1.88;;;;;;;;;;5005934;28;20132;-69
2024/01/26 13:54:53;;;;;;;9.82;1.30;;;;;;;;;;5010422;28;20034;-69
2024/01/26 13:57:19;;;;;;;2.27;0.70;;;;;;;;;;5003290;28;20018;-69
2024/01/26 13:59:44;;;;;;;8.73;1.83;;;;;;;;;;5007100;28;20246;-69
2024/01/26 14:02:09;;;;;;;8.37;2.43;;;;;;;;;;5004032;28;20022;-69
2024/01/26 14:04:34;;;;;;;15.80;1.50;;;;;;;;;;4999792;28;20396;-68
2024/01/26 14:07:00;;;;;;;5.45;1.20;;;;;;;;;;5001516;28;20664;-69
2024/01/26 14:09:25;;;;;;;6.78;1.15;;;;;;;;;;5007346;28;20030;-69
2024/01/26 14:11:50;;;;;;;10.47;2.17;;;;;;;;;;5009391;28;20018;-69
2024/01/26 14:14:17;;;;;;;5.93;1.30;;;;;;;;;;4999299;28;20292;-68
2024/01/26 14:16:42;;;;;;;9.50;1.20;;;;;;;;;;5001419;28;20328;-68
2024/01/26 14:19:07;;;;;;;5.65;1.08;;;;;;;;;;5003163;28;20029;-69
2024/01/26 14:21:34;;;;;;;11.07;1.17;;;;;;;;;;5000784;28;20080;-69
2024/01/26 14:24:01;;;;;;;12.52;2.38;;;;;;;;;;5015169;28;20335;-69
2024/01/26 14:26:30;;;;;;;6.18;1.33;;;;;;;;;;5007824;28;20064;-68
2024/01/26 14:28:55;;;;;;;14.95;2.58;;;;;;;;;;5009756;28;20049;-68